Time;durP1;ratioP1;P1;durP2;ratioP2;P2;SDS_P1;SDS_P2;PMS_P1;PMS_P2;Temp;Humidity;BMP_temperature;BMP_pressure;BME280_temperature;BME280_humidity;BME280_pressure;Samples;Min_cycle;Max_cycle;Signal;HPM_P1;HPM_P2
2021/08/03 00:01:50;;;;;;;18.17;16.77;;;32.30;73.00;;;;;;5122484;28;20439;-37
2021/08/03 00:04:22;;;;;;;18.90;17.30;;;32.20;73.20;;;;;;5123540;28;20501;-37
2021/08/03 00:06:54;;;;;;;19.87;18.27;;;32.00;74.70;;;;;;5123340;28;20467;-37
2021/08/03 00:09:30;;;;;;;20.17;18.23;;;32.00;74.90;;;;;;5127716;28;20504;-37
2021/08/03 00:12:03;;;;;;;19.17;17.40;;;32.00;75.00;;;;;;5123823;28;20914;-38
2021/08/03 00:14:34;;;;;;;19.40;17.70;;;31.90;76.20;;;;;;5112295;28;20442;-37
2021/08/03 00:17:06;;;;;;;18.73;17.20;;;31.80;75.50;;;;;;5123979;28;20502;-37
2021/08/03 00:19:36;;;;;;;18.57;16.97;;;31.80;75.70;;;;;;5127511;28;20456;-37
2021/08/03 00:22:08;;;;;;;18.53;16.90;;;31.70;75.70;;;;;;5124719;28;20476;-37
2021/08/03 00:24:40;;;;;;;17.77;16.17;;;31.80;76.60;;;;;;5115013;28;20494;-37
2021/08/03 00:27:13;;;;;;;18.70;17.00;;;31.80;76.70;;;;;;5122282;28;20487;-37
2021/08/03 00:29:44;;;;;;;17.83;16.20;;;31.80;76.60;;;;;;5111678;28;20502;-37
2021/08/03 00:32:15;;;;;;;19.97;18.37;;;31.80;77.60;;;;;;5126484;28;20486;-36
2021/08/03 00:34:46;;;;;;;19.80;17.90;;;31.80;78.10;;;;;;5124255;28;20463;-36
2021/08/03 00:37:17;;;;;;;18.83;17.13;;;31.70;78.30;;;;;;5121373;28;20525;-36
2021/08/03 00:39:50;;;;;;;21.37;19.37;;;31.80;78.20;;;;;;5109764;28;20463;-36
2021/08/03 00:42:22;;;;;;;20.13;18.33;;;31.80;78.80;;;;;;5126395;28;20570;-36
2021/08/03 00:44:55;;;;;;;21.87;19.33;;;31.80;80.50;;;;;;5118112;28;20806;-34
2021/08/03 00:47:26;;;;;;;22.53;20.10;;;31.70;77.90;;;;;;5118396;28;20929;-35
2021/08/03 00:49:58;;;;;;;21.07;19.07;;;31.60;78.50;;;;;;5126543;28;20479;-36
2021/08/03 00:52:47;;;;;;;17.60;16.10;;;31.50;78.20;;;;;;5120102;28;20447;-36
2021/08/03 00:55:18;;;;;;;18.10;16.60;;;31.40;78.80;;;;;;5125590;28;20862;-37
2021/08/03 00:57:51;;;;;;;17.73;16.23;;;31.30;78.70;;;;;;5125901;28;20451;-35
2021/08/03 01:00:23;;;;;;;18.10;16.50;;;31.10;79.20;;;;;;5125396;28;20441;-37
2021/08/03 01:02:54;;;;;;;17.23;15.63;;;31.00;79.60;;;;;;5123332;28;20501;-37
2021/08/03 01:05:30;;;;;;;16.20;14.60;;;30.90;80.30;;;;;;5112870;28;20473;-44
2021/08/03 01:08:07;;;;;;;16.30;14.80;;;30.80;80.80;;;;;;5126441;27;20480;-44
2021/08/03 01:10:50;;;;;;;16.50;15.00;;;30.80;81.30;;;;;;5123530;28;20488;-45
2021/08/03 01:13:32;;;;;;;15.70;14.30;;;30.80;81.50;;;;;;5122695;27;20450;-44
2021/08/03 01:16:10;;;;;;;17.83;16.30;;;30.80;82.00;;;;;;5108482;28;20456;-44
2021/08/03 01:18:47;;;;;;;18.57;16.80;;;30.80;81.70;;;;;;5125180;28;20509;-44
2021/08/03 01:21:45;;;;;;;17.53;15.83;;;30.70;81.10;;;;;;5124052;28;20471;-44
2021/08/03 01:24:46;;;;;;;18.37;16.77;;;30.70;81.40;;;;;;5106414;28;20444;-44
2021/08/03 01:27:27;;;;;;;18.57;16.70;;;30.60;82.60;;;;;;5110737;28;20444;-44
2021/08/03 01:30:01;;;;;;;17.53;16.13;;;30.50;82.00;;;;;;5126571;28;20467;-44
2021/08/03 01:32:34;;;;;;;17.30;15.80;;;30.40;83.00;;;;;;5124981;28;20480;-44
2021/08/03 01:35:06;;;;;;;17.90;16.20;;;30.40;83.40;;;;;;5125484;28;20451;-44
2021/08/03 01:37:38;;;;;;;19.53;17.87;;;30.30;83.70;;;;;;5124290;28;20458;-43
2021/08/03 01:40:13;;;;;;;18.50;16.90;;;30.30;83.60;;;;;;5126103;28;20459;-43
2021/08/03 01:42:45;;;;;;;20.07;18.27;;;30.40;83.50;;;;;;5124487;28;20478;-44
2021/08/03 01:45:20;;;;;;;24.37;22.17;;;30.30;84.90;;;;;;5126032;28;20499;-44
2021/08/03 01:47:52;;;;;;;21.17;19.00;;;30.20;84.60;;;;;;5124373;28;20532;-44
2021/08/03 01:50:25;;;;;;;19.03;17.23;;;30.30;84.80;;;;;;5125377;28;20493;-43
2021/08/03 01:52:58;;;;;;;18.43;16.80;;;30.20;83.20;;;;;;5124985;28;20493;-43
2021/08/03 01:55:31;;;;;;;18.53;16.90;;;30.10;84.00;;;;;;5120657;28;20927;-44
2021/08/03 01:58:03;;;;;;;18.63;16.90;;;30.10;84.20;;;;;;5118734;28;20445;-44
2021/08/03 02:00:35;;;;;;;19.33;17.63;;;30.00;84.50;;;;;;5125421;28;20443;-43
2021/08/03 02:03:07;;;;;;;19.07;17.47;;;29.90;85.60;;;;;;5123874;28;20475;-44
2021/08/03 02:05:39;;;;;;;18.73;16.90;;;29.90;86.50;;;;;;5125105;27;20443;-45
2021/08/03 02:08:11;;;;;;;19.40;17.60;;;29.80;85.40;;;;;;5111694;28;20480;-44
2021/08/03 02:10:42;;;;;;;17.57;16.10;;;29.70;85.20;;;;;;5121059;28;20496;-43
2021/08/03 02:13:13;;;;;;;19.70;18.00;;;29.60;85.50;;;;;;5123391;28;20466;-44
2021/08/03 02:15:46;;;;;;;19.00;17.30;;;29.50;85.50;;;;;;5124318;27;20463;-44
2021/08/03 02:18:18;;;;;;;19.10;17.40;;;29.40;85.80;;;;;;5121697;27;20450;-44
2021/08/03 02:20:49;;;;;;;20.07;18.17;;;29.30;85.40;;;;;;5118588;28;20480;-44
2021/08/03 02:23:20;;;;;;;18.57;16.97;;;29.10;86.20;;;;;;5122280;28;20549;-44
2021/08/03 02:25:51;;;;;;;17.93;16.43;;;29.00;86.70;;;;;;5119664;28;20475;-44
2021/08/03 02:28:22;;;;;;;17.73;16.13;;;29.00;86.50;;;;;;5118502;28;20445;-45
2021/08/03 02:31:00;;;;;;;17.73;16.03;;;28.90;86.30;;;;;;5119661;28;20506;-45
2021/08/03 02:33:37;;;;;;;18.93;17.20;;;28.80;87.10;;;;;;5123570;28;20555;-44
2021/08/03 02:36:11;;;;;;;17.27;15.77;;;28.70;87.10;;;;;;5124577;28;20464;-43
2021/08/03 02:38:45;;;;;;;16.77;15.37;;;28.70;86.50;;;;;;5123097;28;20449;-44
2021/08/03 02:41:17;;;;;;;15.80;14.40;;;28.60;86.10;;;;;;5108052;28;20477;-44
2021/08/03 02:43:50;;;;;;;16.77;15.40;;;28.50;87.10;;;;;;5115856;28;20441;-43
2021/08/03 02:46:24;;;;;;;15.70;14.13;;;28.50;87.80;;;;;;5122794;28;20507;-43
2021/08/03 02:49:03;;;;;;;15.73;14.27;;;28.50;87.00;;;;;;5119387;28;20619;-43
2021/08/03 02:51:37;;;;;;;15.03;13.73;;;28.50;86.90;;;;;;5114861;28;21021;-44
2021/08/03 02:54:22;;;;;;;15.43;14.00;;;28.40;87.00;;;;;;5121563;28;20445;-44
2021/08/03 02:56:56;;;;;;;15.90;14.50;;;28.30;88.20;;;;;;5119183;28;20513;-44
2021/08/03 02:59:30;;;;;;;15.60;14.03;;;28.30;87.30;;;;;;5121547;28;20444;-44
2021/08/03 03:02:05;;;;;;;16.33;15.03;;;28.30;88.10;;;;;;5122683;28;20459;-45
2021/08/03 03:04:41;;;;;;;15.43;14.03;;;28.20;88.50;;;;;;5123541;28;20516;-44
2021/08/03 03:07:17;;;;;;;16.20;14.63;;;28.10;89.20;;;;;;5122346;28;20575;-44
2021/08/03 03:09:49;;;;;;;14.93;13.60;;;28.00;88.70;;;;;;5120460;28;20445;-43
2021/08/03 03:12:20;;;;;;;14.10;12.80;;;27.90;88.60;;;;;;5123457;28;20481;-44
2021/08/03 03:14:52;;;;;;;15.23;13.73;;;27.90;88.70;;;;;;5122427;28;20760;-43
2021/08/03 03:17:27;;;;;;;14.03;12.73;;;27.80;89.00;;;;;;5121695;28;20449;-43
2021/08/03 03:20:00;;;;;;;14.70;13.43;;;27.70;88.70;;;;;;5123203;28;20810;-43
2021/08/03 03:22:34;;;;;;;14.27;12.87;;;27.80;88.50;;;;;;5121946;28;20430;-43
2021/08/03 03:25:06;;;;;;;15.20;13.90;;;27.80;88.30;;;;;;5123441;28;20444;-42
2021/08/03 03:27:38;;;;;;;14.20;12.90;;;27.80;88.00;;;;;;5120060;28;20436;-42
2021/08/03 03:30:11;;;;;;;17.63;13.20;;;27.80;88.60;;;;;;5121967;28;20445;-43
2021/08/03 03:32:45;;;;;;;14.03;12.83;;;27.70;88.10;;;;;;5118151;28;20819;-44
2021/08/03 03:35:20;;;;;;;14.47;13.27;;;27.60;88.50;;;;;;5122805;28;20962;-43
2021/08/03 03:37:53;;;;;;;13.40;12.10;;;27.60;88.60;;;;;;5120829;28;20448;-44
2021/08/03 03:40:25;;;;;;;13.60;12.40;;;27.40;88.70;;;;;;5118731;28;20452;-42
2021/08/03 03:42:58;;;;;;;14.20;13.10;;;27.30;89.60;;;;;;5120957;28;20478;-42
2021/08/03 03:45:31;;;;;;;13.90;12.60;;;27.20;90.00;;;;;;5121318;28;20479;-43
2021/08/03 03:48:09;;;;;;;13.70;12.60;;;27.20;89.90;;;;;;5120041;28;20506;-44
2021/08/03 03:50:47;;;;;;;13.83;12.43;;;27.10;89.40;;;;;;5113725;28;20446;-44
2021/08/03 03:53:22;;;;;;;13.10;11.80;;;27.00;89.60;;;;;;5123253;28;20592;-42
2021/08/03 03:55:56;;;;;;;13.10;11.90;;;27.10;89.20;;;;;;5119564;28;20455;-43
2021/08/03 03:58:29;;;;;;;13.07;11.83;;;27.00;89.70;;;;;;5116798;28;20478;-43
2021/08/03 04:01:01;;;;;;;12.90;11.80;;;26.80;90.40;;;;;;5122295;28;20455;-43
2021/08/03 04:03:37;;;;;;;12.83;11.73;;;26.70;90.60;;;;;;5121957;28;20490;-45
2021/08/03 04:06:12;;;;;;;12.57;11.50;;;26.60;90.80;;;;;;5122127;28;20515;-44
2021/08/03 04:08:43;;;;;;;13.63;12.53;;;26.50;90.90;;;;;;5120731;28;20448;-43
2021/08/03 04:11:16;;;;;;;12.67;11.57;;;26.60;90.80;;;;;;5122274;28;20459;-43
2021/08/03 04:13:49;;;;;;;13.53;12.27;;;26.50;91.20;;;;;;5122096;28;20450;-43
2021/08/03 04:16:21;;;;;;;12.37;11.23;;;26.50;91.30;;;;;;5120866;28;20928;-43
2021/08/03 04:18:53;;;;;;;12.80;11.60;;;26.50;91.50;;;;;;5121526;28;20452;-43
2021/08/03 04:21:24;;;;;;;11.67;10.67;;;26.40;91.70;;;;;;5121841;28;20502;-45
2021/08/03 04:23:55;;;;;;;11.63;10.53;;;26.40;91.70;;;;;;5121044;28;20931;-44
2021/08/03 04:26:27;;;;;;;13.13;11.87;;;26.40;91.80;;;;;;5132473;28;20541;-42
2021/08/03 04:28:58;;;;;;;12.20;11.10;;;26.40;92.10;;;;;;5121946;28;20613;-42
2021/08/03 04:31:29;;;;;;;12.83;11.60;;;26.30;92.30;;;;;;5116174;28;20447;-43
2021/08/03 04:34:02;;;;;;;12.87;11.67;;;26.20;92.70;;;;;;5132752;28;20504;-42
2021/08/03 04:36:35;;;;;;;12.10;10.90;;;26.10;92.80;;;;;;5112605;28;20488;-42
2021/08/03 04:39:10;;;;;;;13.30;12.00;;;26.00;93.00;;;;;;5114369;28;20473;-42
2021/08/03 04:41:41;;;;;;;11.90;10.90;;;25.90;93.30;;;;;;5120710;28;20472;-41
2021/08/03 04:44:12;;;;;;;11.60;10.40;;;25.90;93.70;;;;;;5118259;28;20477;-43
2021/08/03 04:46:43;;;;;;;11.73;10.70;;;25.80;93.80;;;;;;5114225;28;20481;-43
2021/08/03 04:49:16;;;;;;;11.20;10.20;;;25.80;94.00;;;;;;5121427;28;20478;-43
2021/08/03 04:51:47;;;;;;;11.67;10.57;;;25.70;94.20;;;;;;5119790;28;20446;-44
2021/08/03 04:54:18;;;;;;;12.37;11.17;;;25.70;94.30;;;;;;5118904;28;20494;-43
2021/08/03 04:56:49;;;;;;;11.07;10.07;;;25.60;94.60;;;;;;5111225;28;20533;-43
2021/08/03 04:59:20;;;;;;;11.57;10.47;;;25.60;94.90;;;;;;5117550;28;20449;-44
2021/08/03 05:01:51;;;;;;;11.33;10.10;;;25.60;94.90;;;;;;5119504;28;20525;-43
2021/08/03 05:04:24;;;;;;;11.67;10.67;;;25.50;95.20;;;;;;5121551;28;20830;-44
2021/08/03 05:06:54;;;;;;;11.70;10.70;;;25.50;95.50;;;;;;5123912;28;20482;-44
2021/08/03 05:09:26;;;;;;;11.23;10.20;;;25.40;95.70;;;;;;5124742;28;20499;-43
2021/08/03 05:11:58;;;;;;;11.63;10.63;;;25.30;95.80;;;;;;5109378;28;20454;-43
2021/08/03 05:14:29;;;;;;;11.50;10.30;;;25.30;96.20;;;;;;5120535;28;20449;-44
2021/08/03 05:17:00;;;;;;;14.70;10.37;;;25.30;96.40;;;;;;5121550;28;20569;-43
2021/08/03 05:19:33;;;;;;;10.57;9.67;;;25.20;96.70;;;;;;5125912;28;20518;-43
2021/08/03 05:22:05;;;;;;;10.37;9.37;;;25.20;96.70;;;;;;5109779;28;20992;-44
2021/08/03 05:24:35;;;;;;;11.00;9.80;;;25.10;97.00;;;;;;5126457;28;20913;-44
2021/08/03 05:27:07;;;;;;;10.27;9.23;;;25.00;97.50;;;;;;5125545;28;21065;-44
2021/08/03 05:29:38;;;;;;;12.60;9.40;;;25.00;97.60;;;;;;5117734;28;20549;-44
2021/08/03 05:32:09;;;;;;;9.90;8.90;;;24.90;97.90;;;;;;5113155;28;20469;-44
2021/08/03 05:34:41;;;;;;;9.77;8.77;;;24.80;98.20;;;;;;5126095;27;20508;-44
2021/08/03 05:37:13;;;;;;;9.67;8.83;;;24.80;98.60;;;;;;5120654;28;20446;-44
2021/08/03 05:39:43;;;;;;;10.67;8.87;;;24.70;98.90;;;;;;5112632;28;20507;-44
2021/08/03 05:42:16;;;;;;;10.23;9.33;;;24.70;99.50;;;;;;5120628;28;20450;-44
2021/08/03 05:44:47;;;;;;;8.90;8.10;;;24.70;99.20;;;;;;5125886;28;20457;-44
2021/08/03 05:47:19;;;;;;;9.30;8.43;;;24.60;99.70;;;;;;5124244;28;20522;-44
2021/08/03 05:49:52;;;;;;;9.13;8.23;;;24.50;99.90;;;;;;5119216;28;20846;-44
2021/08/03 05:52:22;;;;;;;9.50;8.57;;;24.60;99.90;;;;;;5110070;28;20494;-43
2021/08/03 05:54:53;;;;;;;10.03;8.60;;;24.50;99.90;;;;;;5120691;28;20473;-44
2021/08/03 05:57:24;;;;;;;9.07;8.27;;;24.50;99.90;;;;;;5119421;28;20429;-43
2021/08/03 05:59:55;;;;;;;9.73;8.80;;;24.50;99.90;;;;;;5108267;28;20535;-34
2021/08/03 06:02:26;;;;;;;9.70;8.80;;;24.50;99.90;;;;;;5124207;28;20521;-35
2021/08/03 06:05:01;;;;;;;8.50;7.80;;;24.40;99.90;;;;;;5125626;28;20475;-35
2021/08/03 06:07:38;;;;;;;9.30;8.23;;;24.40;99.90;;;;;;5118772;28;20461;-35
2021/08/03 06:10:14;;;;;;;12.60;8.40;;;24.40;99.90;;;;;;5112712;28;20480;-35
2021/08/03 06:12:49;;;;;;;9.30;8.50;;;24.30;99.90;;;;;;5124951;28;20447;-35
2021/08/03 06:15:20;;;;;;;10.37;9.47;;;24.10;99.90;;;;;;5125549;28;20588;-35
2021/08/03 06:18:00;;;;;;;9.90;8.87;;;24.00;99.90;;;;;;5124322;28;20438;-35
2021/08/03 06:20:35;;;;;;;10.30;9.30;;;23.90;99.90;;;;;;5117913;28;20448;-36
2021/08/03 06:23:07;;;;;;;10.03;9.10;;;23.80;99.90;;;;;;5113174;28;20509;-36
2021/08/03 06:25:40;;;;;;;10.87;9.77;;;23.70;99.90;;;;;;5120752;28;20508;-35
2021/08/03 06:28:11;;;;;;;9.57;8.73;;;23.60;99.90;;;;;;5124912;28;20432;-35
2021/08/03 06:30:43;;;;;;;10.27;9.00;;;23.50;99.90;;;;;;5114928;28;20442;-35
2021/08/03 06:33:16;;;;;;;12.63;10.10;;;23.40;99.90;;;;;;5119190;28;21067;-35
2021/08/03 06:35:50;;;;;;;9.53;8.60;;;23.30;99.90;;;;;;5124987;28;20409;-34
2021/08/03 06:38:20;;;;;;;9.93;8.93;;;23.20;99.90;;;;;;5111363;28;20428;-35
2021/08/03 06:40:56;;;;;;;10.67;9.57;;;23.20;99.90;;;;;;5109546;28;20451;-35
2021/08/03 06:43:29;;;;;;;10.10;9.10;;;23.10;99.90;;;;;;5124617;28;20456;-36
2021/08/03 06:46:06;;;;;;;11.60;9.47;;;23.10;99.90;;;;;;5124737;28;20477;-36
2021/08/03 06:48:47;;;;;;;11.00;9.90;;;23.00;99.90;;;;;;5123550;28;20471;-36
2021/08/03 06:51:20;;;;;;;9.80;8.90;;;23.00;99.90;;;;;;5119492;28;20458;-36
2021/08/03 06:53:54;;;;;;;11.00;9.70;;;22.80;99.90;;;;;;5122410;28;20583;-35
2021/08/03 06:56:26;;;;;;;10.30;9.30;;;22.80;99.90;;;;;;5108750;28;20445;-35
2021/08/03 06:59:03;;;;;;;10.17;8.60;;;22.70;99.90;;;;;;5116697;28;20433;-35
2021/08/03 07:01:46;;;;;;;10.20;9.13;;;22.70;99.90;;;;;;5122429;28;20479;-35
2021/08/03 07:04:23;;;;;;;9.77;8.30;;;22.60;99.90;;;;;;5122474;28;20450;-34
2021/08/03 07:07:00;;;;;;;9.40;8.53;;;22.50;99.90;;;;;;5119897;28;20461;-35
2021/08/03 07:09:32;;;;;;;9.27;8.30;;;22.50;99.90;;;;;;5118311;28;20446;-35
2021/08/03 07:12:07;;;;;;;10.27;9.17;;;22.40;99.90;;;;;;5118334;28;20489;-35
2021/08/03 07:14:39;;;;;;;10.50;8.70;;;22.40;99.90;;;;;;5123927;28;20516;-35
2021/08/03 07:17:14;;;;;;;9.83;8.83;;;22.30;99.90;;;;;;5115810;28;20425;-35
2021/08/03 07:19:46;;;;;;;9.87;8.37;;;22.30;99.90;;;;;;5123714;28;20449;-36
2021/08/03 07:22:19;;;;;;;9.27;8.37;;;22.30;99.90;;;;;;5107119;28;20820;-35
2021/08/03 07:24:50;;;;;;;12.10;8.60;;;22.20;99.90;;;;;;5116907;28;20438;-35
2021/08/03 07:27:21;;;;;;;9.27;8.33;;;22.20;99.90;;;;;;5124177;28;20449;-35
2021/08/03 07:29:52;;;;;;;9.70;8.57;;;22.00;99.90;;;;;;5123650;28;20424;-35
2021/08/03 07:32:23;;;;;;;9.27;8.40;;;22.00;99.90;;;;;;5105789;28;20465;-35
2021/08/03 07:34:54;;;;;;;10.40;9.30;;;22.00;99.90;;;;;;5123764;28;20521;-35
2021/08/03 07:37:27;;;;;;;11.53;9.27;;;22.00;99.90;;;;;;5114844;28;20480;-35
2021/08/03 07:39:58;;;;;;;9.17;8.13;;;22.00;99.90;;;;;;5121400;28;20471;-35
2021/08/03 07:42:29;;;;;;;10.43;8.50;;;21.90;99.90;;;;;;5121908;28;20465;-34
2021/08/03 07:45:00;;;;;;;9.40;8.33;;;21.90;99.90;;;;;;5123492;28;20452;-35
2021/08/03 07:47:34;;;;;;;10.37;8.67;;;21.80;99.90;;;;;;5122682;28;20503;-35
2021/08/03 07:50:05;;;;;;;10.80;8.53;;;21.70;99.90;;;;;;5117263;28;20929;-36
2021/08/03 07:52:39;;;;;;;10.50;9.23;;;21.70;99.90;;;;;;5111888;28;20889;-35
2021/08/03 07:55:10;;;;;;;10.43;8.70;;;21.60;99.90;;;;;;5123924;28;20485;-35
2021/08/03 07:57:41;;;;;;;10.40;9.40;;;21.50;99.90;;;;;;5114782;28;20486;-35
2021/08/03 08:00:16;;;;;;;9.60;8.73;;;21.40;99.90;;;;;;5119694;28;20460;-34
2021/08/03 08:02:47;;;;;;;8.60;7.90;;;21.50;99.90;;;;;;5119165;28;20424;-35
2021/08/03 08:05:20;;;;;;;9.33;8.30;;;21.40;99.90;;;;;;5123987;28;20586;-35
2021/08/03 08:07:57;;;;;;;9.53;8.47;;;21.30;99.90;;;;;;5112084;28;20421;-36
2021/08/03 08:10:27;;;;;;;10.60;8.90;;;21.40;99.90;;;;;;5120690;28;20456;-35
2021/08/03 08:13:15;;;;;;;8.70;7.97;;;21.40;99.90;;;;;;5113070;28;20981;-36
2021/08/03 08:15:46;;;;;;;8.90;8.00;;;21.30;99.90;;;;;;5123732;28;20424;-35
2021/08/03 08:18:17;;;;;;;9.23;8.30;;;21.20;99.90;;;;;;5122657;28;20524;-35
2021/08/03 08:20:49;;;;;;;11.20;8.20;;;21.20;99.90;;;;;;5107135;28;20544;-35
2021/08/03 08:23:21;;;;;;;8.33;7.57;;;21.20;99.90;;;;;;5116766;28;20444;-35
2021/08/03 08:25:53;;;;;;;8.60;7.80;;;21.20;99.90;;;;;;5123429;28;20475;-35
2021/08/03 08:28:24;;;;;;;8.43;7.50;;;21.10;99.90;;;;;;5111624;28;20447;-35
2021/08/03 08:30:55;;;;;;;8.77;7.87;;;21.00;99.90;;;;;;5126291;28;20453;-35
2021/08/03 08:33:26;;;;;;;8.33;7.53;;;21.00;99.90;;;;;;5124231;28;20421;-35
2021/08/03 08:35:57;;;;;;;8.80;7.37;;;20.90;99.90;;;;;;5119461;28;20420;-35
2021/08/03 08:38:29;;;;;;;7.97;7.17;;;21.00;99.90;;;;;;5126299;28;20480;-35
2021/08/03 08:41:01;;;;;;;8.50;7.50;;;21.00;99.90;;;;;;5118644;28;20415;-35
2021/08/03 08:43:32;;;;;;;8.17;7.37;;;21.10;99.90;;;;;;5127365;28;20495;-35
2021/08/03 08:46:05;;;;;;;7.90;7.20;;;21.00;99.90;;;;;;5123154;28;20520;-35
2021/08/03 08:48:37;;;;;;;8.80;7.90;;;20.90;99.90;;;;;;5117199;28;20460;-35
2021/08/03 08:51:08;;;;;;;8.40;7.60;;;20.80;99.90;;;;;;5126978;28;20442;-35
2021/08/03 08:53:41;;;;;;;8.15;7.35;;;20.80;99.90;;;;;;5126535;28;20446;-36
2021/08/03 08:56:12;;;;;;;7.37;6.77;;;20.70;99.90;;;;;;5122319;28;20442;-34
2021/08/03 08:58:43;;;;;;;8.80;6.90;;;20.70;99.90;;;;;;5124419;28;20441;-35
2021/08/03 09:01:15;;;;;;;8.23;6.70;;;20.70;99.90;;;;;;5124590;28;20477;-34
2021/08/03 09:03:49;;;;;;;8.07;7.27;;;20.60;99.90;;;;;;5126902;28;20424;-34
2021/08/03 09:06:22;;;;;;;7.00;6.20;;;20.50;99.90;;;;;;5127073;28;20459;-34
2021/08/03 09:08:55;;;;;;;8.93;6.13;;;20.50;99.90;;;;;;5123108;27;20425;-34
2021/08/03 09:11:26;;;;;;;7.17;6.47;;;20.50;99.90;;;;;;5117314;28;20476;-34
2021/08/03 09:14:17;;;;;;;10.67;7.67;;;20.50;99.90;;;;;;5126658;28;20469;-34
2021/08/03 09:16:51;;;;;;;7.33;6.43;;;20.50;99.90;;;;;;5125559;27;20539;-34
2021/08/03 09:19:33;;;;;;;7.73;6.93;;;20.40;99.90;;;;;;5126569;28;20445;-34
2021/08/03 09:22:16;;;;;;;6.90;6.20;;;20.40;99.90;;;;;;5124935;27;20435;-35
2021/08/03 09:24:50;;;;;;;6.93;6.23;;;20.40;99.90;;;;;;5125769;28;20443;-33
2021/08/03 09:27:43;;;;;;;8.80;6.80;;;20.30;99.90;;;;;;5120344;28;20444;-33
2021/08/03 09:30:31;;;;;;;6.90;6.20;;;20.30;99.90;;;;;;5120371;28;20417;-34
2021/08/03 09:33:03;;;;;;;7.37;6.67;;;20.30;99.90;;;;;;5124399;28;20448;-33
2021/08/03 09:35:35;;;;;;;7.77;7.07;;;20.20;99.90;;;;;;5126411;28;20523;-33
2021/08/03 09:38:16;;;;;;;8.70;7.43;;;20.20;99.90;;;;;;5123455;28;20442;-33
2021/08/03 09:40:52;;;;;;;7.50;6.40;;;20.10;99.90;;;;;;5119520;28;20424;-34
2021/08/03 09:43:30;;;;;;;8.93;6.60;;;20.00;99.90;;;;;;5120081;28;20463;-34
2021/08/03 09:46:03;;;;;;;7.50;6.37;;;20.10;99.90;;;;;;5125354;28;20483;-34
2021/08/03 09:48:34;;;;;;;7.23;5.90;;;19.90;99.90;;;;;;5124968;28;20441;-34
2021/08/03 09:51:07;;;;;;;8.20;6.30;;;19.90;99.90;;;;;;5117317;28;20885;-34
2021/08/03 09:53:44;;;;;;;8.57;6.70;;;19.90;99.90;;;;;;5117933;28;20581;-34
2021/08/03 09:56:18;;;;;;;6.40;5.80;;;19.80;99.90;;;;;;5112536;28;20564;-34
2021/08/03 09:58:55;;;;;;;7.07;6.37;;;19.80;99.90;;;;;;5122225;28;20449;-33
2021/08/03 10:01:28;;;;;;;7.47;6.73;;;19.70;99.90;;;;;;5117166;28;20465;-35
2021/08/03 10:04:02;;;;;;;7.10;6.33;;;19.70;99.90;;;;;;5122232;28;20477;-34
2021/08/03 10:06:34;;;;;;;7.00;6.23;;;19.80;99.90;;;;;;5125429;28;20465;-34
2021/08/03 10:09:06;;;;;;;7.33;6.43;;;19.80;99.90;;;;;;5115861;27;20461;-33
2021/08/03 10:11:39;;;;;;;6.93;6.30;;;19.70;99.90;;;;;;5115708;28;20428;-34
2021/08/03 10:14:27;;;;;;;7.30;6.40;;;19.50;99.90;;;;;;5124852;28;20564;-33
2021/08/03 10:16:58;;;;;;;7.73;6.20;;;19.50;99.90;;;;;;5124268;28;20424;-33
2021/08/03 10:19:30;;;;;;;7.73;6.27;;;19.60;99.90;;;;;;5124853;28;20450;-33
2021/08/03 10:22:09;;;;;;;6.63;6.00;;;19.50;99.90;;;;;;5123869;28;20436;-33
2021/08/03 10:24:44;;;;;;;8.73;7.07;;;19.40;99.90;;;;;;5124523;28;20939;-33
2021/08/03 10:27:17;;;;;;;6.27;5.53;;;19.40;99.90;;;;;;5124470;28;20454;-33
2021/08/03 10:29:52;;;;;;;6.33;5.43;;;19.30;99.90;;;;;;5105753;28;20461;-33
2021/08/03 10:32:41;;;;;;;6.40;5.80;;;19.20;99.90;;;;;;5107828;28;20472;-34
2021/08/03 10:35:16;;;;;;;7.40;6.37;;;19.20;99.90;;;;;;5112481;28;20484;-33
2021/08/03 10:38:28;;;;;;;6.77;6.17;;;19.20;99.90;;;;;;5123600;28;20424;-33
2021/08/03 10:41:10;;;;;;;6.97;6.30;;;19.30;99.90;;;;;;5111661;28;20441;-33
2021/08/03 10:43:51;;;;;;;6.23;5.63;;;19.20;99.90;;;;;;5112013;28;20454;-33
2021/08/03 10:46:42;;;;;;;8.33;5.87;;;19.20;99.90;;;;;;5103802;28;20490;-33
2021/08/03 10:49:13;;;;;;;6.33;5.73;;;19.10;99.90;;;;;;5116725;28;20469;-33
2021/08/03 10:51:49;;;;;;;7.40;5.90;;;19.20;99.90;;;;;;5124016;28;20438;-33
2021/08/03 10:54:21;;;;;;;7.37;6.57;;;19.10;99.90;;;;;;5115062;28;20500;-33
2021/08/03 10:57:22;;;;;;;6.67;6.00;;;19.20;99.90;;;;;;5124301;28;20481;-33
2021/08/03 11:00:06;;;;;;;7.30;6.60;;;19.10;99.90;;;;;;5116076;28;20490;-34
2021/08/03 11:02:52;;;;;;;7.73;6.60;;;19.10;99.90;;;;;;5122735;28;20445;-34
2021/08/03 11:05:31;;;;;;;7.50;5.73;;;19.10;99.90;;;;;;5123842;28;20481;-33
2021/08/03 11:08:37;;;;;;;7.30;6.60;;;18.90;99.90;;;;;;5122752;28;20462;-33
2021/08/03 11:11:11;;;;;;;7.00;5.37;;;18.90;99.90;;;;;;5108957;28;20511;-33
2021/08/03 11:13:45;;;;;;;6.33;5.73;;;18.80;99.90;;;;;;5104928;28;20576;-33
2021/08/03 11:16:56;;;;;;;7.60;6.20;;;18.80;99.90;;;;;;5112164;28;20531;-34
2021/08/03 11:19:34;;;;;;;6.67;6.17;;;18.80;99.90;;;;;;5119970;28;20442;-33
2021/08/03 11:22:08;;;;;;;7.83;5.97;;;18.70;99.90;;;;;;5111885;28;20412;-34
2021/08/03 11:24:44;;;;;;;5.97;5.40;;;18.70;99.90;;;;;;5104869;28;20446;-34
2021/08/03 11:27:27;;;;;;;6.93;6.10;;;18.70;99.90;;;;;;5123453;28;20517;-34
2021/08/03 11:29:58;;;;;;;7.40;6.70;;;18.70;99.90;;;;;;5123049;28;20454;-33
2021/08/03 11:32:33;;;;;;;6.40;5.80;;;18.70;99.90;;;;;;5117928;28;20449;-33
2021/08/03 11:35:04;;;;;;;8.07;7.23;;;18.70;99.90;;;;;;5122885;28;20452;-33
2021/08/03 11:37:41;;;;;;;6.53;5.90;;;18.70;99.90;;;;;;5119991;28;20473;-34
2021/08/03 11:40:13;;;;;;;5.70;5.17;;;18.70;99.90;;;;;;5109366;28;20445;-34
2021/08/03 11:42:45;;;;;;;7.70;7.00;;;18.60;99.90;;;;;;5117425;28;20461;-34
2021/08/03 11:45:19;;;;;;;6.57;5.90;;;18.70;99.90;;;;;;5108164;28;20553;-34
2021/08/03 11:47:54;;;;;;;6.97;6.27;;;18.50;99.90;;;;;;5117282;28;20470;-33
2021/08/03 11:50:32;;;;;;;7.60;5.93;;;18.40;99.90;;;;;;5123690;28;20640;-33
2021/08/03 11:53:06;;;;;;;6.57;5.87;;;18.40;99.90;;;;;;5117344;28;20441;-34
2021/08/03 11:55:39;;;;;;;7.43;5.70;;;18.30;99.90;;;;;;5106306;28;20497;-33
2021/08/03 11:58:10;;;;;;;6.80;6.20;;;18.40;99.90;;;;;;5119222;28;20585;-33
2021/08/03 12:00:41;;;;;;;6.83;5.60;;;18.40;99.90;;;;;;5121703;28;20470;-33
2021/08/03 12:03:28;;;;;;;5.50;5.00;;;18.30;99.90;;;;;;5119851;28;20453;-32
2021/08/03 12:06:02;;;;;;;7.00;6.07;;;18.30;99.90;;;;;;5127043;28;20453;-33
2021/08/03 12:08:35;;;;;;;8.37;6.93;;;18.20;99.90;;;;;;5126802;28;20446;-33
2021/08/03 12:11:10;;;;;;;7.67;6.13;;;18.30;99.90;;;;;;5113281;28;20456;-32
2021/08/03 12:13:41;;;;;;;6.33;5.73;;;18.20;99.90;;;;;;5119061;28;20438;-33
2021/08/03 12:16:12;;;;;;;6.00;5.40;;;18.20;99.90;;;;;;5111355;28;20517;-33
2021/08/03 12:18:45;;;;;;;6.43;5.83;;;18.10;99.90;;;;;;5127104;28;20441;-33
2021/08/03 12:21:16;;;;;;;6.97;6.27;;;18.10;99.90;;;;;;5127082;28;20450;-33
2021/08/03 12:23:47;;;;;;;6.93;5.87;;;18.10;99.90;;;;;;5112192;28;20510;-34
2021/08/03 12:26:23;;;;;;;6.10;5.50;;;18.00;99.90;;;;;;5126755;28;20442;-33
2021/08/03 12:28:55;;;;;;;6.23;5.40;;;18.00;99.90;;;;;;5126890;28;20432;-33
2021/08/03 12:31:30;;;;;;;5.73;5.10;;;18.00;99.90;;;;;;5123605;28;20457;-33
2021/08/03 12:34:17;;;;;;;6.87;5.50;;;17.90;99.90;;;;;;5125170;28;20472;-33
2021/08/03 12:36:49;;;;;;;6.87;6.07;;;17.90;99.90;;;;;;5126705;28;20477;-33
2021/08/03 12:39:22;;;;;;;5.80;5.20;;;17.80;99.90;;;;;;5126718;28;20460;-33
2021/08/03 12:42:06;;;;;;;6.63;6.03;;;17.80;99.90;;;;;;5119276;28;20446;-33
2021/08/03 12:44:39;;;;;;;8.23;5.63;;;17.70;99.90;;;;;;5121630;28;20442;-34
2021/08/03 12:47:15;;;;;;;10.87;6.20;;;17.70;99.90;;;;;;5124621;28;20472;-33
2021/08/03 12:49:49;;;;;;;6.73;5.70;;;17.70;99.90;;;;;;5118563;28;20478;-33
2021/08/03 12:52:21;;;;;;;6.50;5.80;;;17.80;99.90;;;;;;5123344;28;20481;-33
2021/08/03 12:54:59;;;;;;;7.30;6.00;;;17.80;99.90;;;;;;5126360;28;20484;-33
2021/08/03 12:57:46;;;;;;;6.80;5.53;;;17.80;99.90;;;;;;5126049;28;20478;-33
2021/08/03 13:00:34;;;;;;;7.93;5.70;;;17.80;99.90;;;;;;5114072;28;20530;-33
2021/08/03 13:03:09;;;;;;;7.03;5.53;;;17.80;99.90;;;;;;5110254;28;20442;-33
2021/08/03 13:05:43;;;;;;;8.03;5.20;;;17.80;99.90;;;;;;5125873;28;20465;-33
2021/08/03 13:08:15;;;;;;;6.83;5.30;;;17.80;99.90;;;;;;5122538;28;20469;-33
2021/08/03 13:10:46;;;;;;;7.60;5.90;;;17.80;99.90;;;;;;5117112;28;20968;-33
2021/08/03 13:13:17;;;;;;;7.17;5.23;;;17.80;99.90;;;;;;5116313;28;20446;-33
2021/08/03 13:15:48;;;;;;;7.03;5.30;;;17.80;99.90;;;;;;5125633;28;20445;-33